Time;durP1;ratioP1;P1;durP2;ratioP2;P2;SDS_P1;SDS_P2;PMS_P1;PMS_P2;Temp;Humidity;BMP_temperature;BMP_pressure;BME280_temperature;BME280_humidity;BME280_pressure;Samples;Min_cycle;Max_cycle;Signal;HPM_P1;HPM_P2
2023/08/30 00:01:15;;;;;;;16.77;8.00;;;23.30;94.50;;;23.88;60.13;94076.88;5075802;28;21065;-59
2023/08/30 00:03:42;;;;;;;13.73;8.20;;;23.30;94.70;;;23.86;59.98;94071.75;5072501;28;20474;-57
2023/08/30 00:06:09;;;;;;;10.90;6.93;;;23.20;94.70;;;23.84;59.86;94067.63;5078162;28;20474;-56
2023/08/30 00:08:36;;;;;;;8.97;6.40;;;23.20;94.40;;;23.82;59.88;94062.50;5068341;28;21026;-62
2023/08/30 00:11:04;;;;;;;7.17;6.13;;;23.20;94.40;;;23.78;59.23;94058.66;5072549;28;20457;-60
2023/08/30 00:13:32;;;;;;;8.17;6.53;;;23.20;94.30;;;23.75;59.60;94051.94;5074964;28;21019;-58
2023/08/30 00:16:02;;;;;;;7.90;5.40;;;23.20;94.20;;;23.73;59.39;94055.91;5072395;28;20488;-59
2023/08/30 00:18:29;;;;;;;6.53;5.83;;;23.10;94.10;;;23.70;59.52;94059.06;5077859;28;20540;-57
2023/08/30 00:20:57;;;;;;;8.57;6.30;;;23.10;94.00;;;23.69;58.54;94070.88;5068616;28;20743;-60
2023/08/30 00:23:25;;;;;;;7.57;5.93;;;23.10;94.00;;;23.65;58.56;94073.22;5070479;28;20573;-58
2023/08/30 00:25:52;;;;;;;6.60;4.80;;;23.00;93.80;;;23.61;59.17;94077.47;5075323;28;20450;-57
2023/08/30 00:28:19;;;;;;;9.00;5.87;;;23.00;93.60;;;23.57;58.35;94065.56;5068543;28;20482;-56
2023/08/30 00:30:46;;;;;;;6.87;6.00;;;23.00;93.60;;;23.54;59.01;94068.72;5075502;28;20454;-56
2023/08/30 00:33:15;;;;;;;13.40;6.33;;;22.90;93.50;;;23.51;58.12;94061.97;5069970;28;20524;-57
2023/08/30 00:35:42;;;;;;;6.50;5.10;;;22.90;93.60;;;23.48;58.21;94057.06;5075144;28;20446;-60
2023/08/30 00:38:09;;;;;;;8.83;6.67;;;22.90;93.50;;;23.46;58.54;94053.81;5071366;28;20485;-59
2023/08/30 00:40:40;;;;;;;6.67;5.87;;;22.90;93.50;;;23.45;58.55;94057.56;5073139;28;20462;-61
2023/08/30 00:43:08;;;;;;;14.63;6.23;;;22.80;93.30;;;23.42;58.10;94064.25;5070095;28;20532;-56
2023/08/30 00:45:36;;;;;;;6.80;6.13;;;22.80;93.30;;;23.42;57.74;94055.34;5071512;28;20499;-60
2023/08/30 00:48:04;;;;;;;6.60;5.90;;;22.80;93.20;;;23.39;57.69;94053.16;5069479;28;20454;-59
2023/08/30 00:50:33;;;;;;;7.57;5.80;;;22.80;93.10;;;23.37;57.56;94056.06;5069370;28;20458;-60
2023/08/30 00:53:05;;;;;;;7.40;6.13;;;22.80;92.90;;;23.37;58.20;94080.22;5072024;28;20470;-58
2023/08/30 00:55:32;;;;;;;6.60;5.13;;;22.80;92.80;;;23.38;57.87;94073.00;5071762;28;20439;-59
2023/08/30 00:58:00;;;;;;;6.50;5.80;;;22.80;92.40;;;23.38;57.83;94081.06;5071022;28;20516;-60
2023/08/30 01:00:28;;;;;;;8.07;5.17;;;22.80;92.40;;;23.37;57.77;94082.09;5074798;28;20807;-60
2023/08/30 01:02:56;;;;;;;11.90;6.30;;;22.70;92.40;;;23.35;57.61;94073.47;5070959;28;20917;-56
2023/08/30 01:05:24;;;;;;;9.10;6.00;;;22.80;92.40;;;23.34;56.97;94071.84;5076192;28;20442;-60
2023/08/30 01:07:52;;;;;;;9.67;5.80;;;22.70;92.30;;;23.34;56.95;94064.59;5072379;28;20454;-60
2023/08/30 01:10:23;;;;;;;8.93;5.97;;;22.70;92.20;;;23.37;56.91;94071.38;5069470;28;20889;-61
2023/08/30 01:12:50;;;;;;;7.53;5.00;;;22.70;92.10;;;23.36;56.72;94059.00;5074958;28;20449;-60
2023/08/30 01:15:20;;;;;;;9.80;5.57;;;22.80;91.90;;;23.36;56.55;94064.34;5068460;28;20536;-56
2023/08/30 01:17:48;;;;;;;8.87;5.43;;;22.70;91.80;;;23.34;56.85;94077.22;5069043;28;20567;-57
2023/08/30 01:20:18;;;;;;;8.17;5.17;;;22.70;91.80;;;23.34;56.97;94078.00;5067982;28;20454;-60
2023/08/30 01:22:53;;;;;;;9.40;4.87;;;22.70;91.90;;;23.39;56.64;94080.81;5070911;28;20500;-56
2023/08/30 01:25:33;;;;;;;6.00;5.43;;;22.70;92.00;;;23.42;56.83;94083.03;5067224;28;20461;-59
2023/08/30 01:28:02;;;;;;;9.87;6.10;;;22.80;91.80;;;23.45;56.16;94084.38;5073937;28;20967;-59
2023/08/30 01:30:30;;;;;;;8.33;6.23;;;22.80;91.70;;;23.48;56.92;94091.16;5067443;28;20825;-61
2023/08/30 01:32:57;;;;;;;10.60;6.03;;;22.80;91.60;;;23.47;56.77;94090.34;5069272;28;20449;-57
2023/08/30 01:35:24;;;;;;;8.80;5.60;;;22.90;91.90;;;23.45;56.52;94082.53;5071575;28;20878;-60
2023/08/30 01:37:51;;;;;;;7.80;5.33;;;22.80;91.40;;;;;;5067279;28;20454;-60
2023/08/30 01:40:19;;;;;;;6.00;5.40;;;22.80;91.40;;;23.47;56.48;94066.19;5073007;28;20450;-57
2023/08/30 01:42:49;;;;;;;8.73;5.23;;;22.90;91.20;;;23.45;55.84;94058.38;5073516;28;20576;-60
2023/08/30 01:45:18;;;;;;;9.80;5.63;;;22.80;91.00;;;23.45;55.91;94062.91;5076683;28;20446;-56
2023/08/30 01:47:45;;;;;;;5.93;5.30;;;22.80;91.00;;;23.42;56.40;94058.88;5079478;28;20882;-57
2023/08/30 01:50:12;;;;;;;5.83;5.20;;;22.80;91.00;;;23.41;55.84;94062.59;5073132;28;20454;-57
2023/08/30 01:52:40;;;;;;;11.67;5.43;;;22.80;91.00;;;23.38;55.75;94073.00;5072202;28;20550;-61
2023/08/30 01:55:08;;;;;;;6.97;5.50;;;22.80;91.10;;;23.35;55.86;94084.22;5073731;28;20909;-59
2023/08/30 01:57:35;;;;;;;12.70;6.37;;;22.80;91.10;;;23.31;56.25;94083.06;5078197;28;20824;-60
2023/08/30 02:00:03;;;;;;;5.30;4.90;;;22.70;91.10;;;23.27;56.35;94078.16;5076453;28;20466;-60
2023/08/30 02:02:32;;;;;;;9.93;5.53;;;22.70;91.20;;;23.24;56.79;94070.59;5076401;28;20485;-61
2023/08/30 02:04:59;;;;;;;8.63;5.60;;;22.60;91.30;;;23.20;56.85;94074.78;5075501;28;20474;-59
2023/08/30 02:07:29;;;;;;;5.63;5.10;;;22.60;91.50;;;23.18;57.03;94087.63;5076422;28;20531;-58
2023/08/30 02:09:59;;;;;;;12.90;5.30;;;22.60;91.70;;;23.15;57.29;94087.31;5074788;28;20465;-59
2023/08/30 02:12:29;;;;;;;8.93;5.37;;;22.60;92.00;;;23.12;57.71;94090.47;5074881;28;20453;-57
2023/08/30 02:14:56;;;;;;;8.73;5.40;;;22.60;92.20;;;23.09;57.69;94089.06;5078372;28;20483;-57
2023/08/30 02:17:23;;;;;;;10.10;6.47;;;22.50;92.30;;;23.06;57.71;94087.63;5080640;28;20798;-60
2023/08/30 02:19:53;;;;;;;9.63;6.93;;;22.50;92.60;;;23.05;58.39;94090.53;5076936;28;20766;-60
2023/08/30 02:22:20;;;;;;;9.43;6.53;;;22.50;93.00;;;23.01;58.21;94078.69;5073229;28;20529;-60
2023/08/30 02:24:48;;;;;;;9.70;6.70;;;22.50;93.40;;;22.99;58.08;94072.72;5073597;28;20466;-59
2023/08/30 02:27:15;;;;;;;7.80;5.83;;;22.40;93.50;;;22.96;58.47;94081.22;5078371;28;20441;-57
2023/08/30 02:29:42;;;;;;;7.40;5.30;;;22.40;93.80;;;22.92;59.40;94078.22;5077207;28;20925;-56
2023/08/30 02:32:10;;;;;;;11.70;6.13;;;22.40;94.20;;;22.87;59.17;94080.81;5078169;28;20449;-60
2023/08/30 02:34:37;;;;;;;8.23;6.10;;;22.30;94.30;;;22.79;59.28;94071.25;5072820;28;20479;-57
2023/08/30 02:37:06;;;;;;;13.00;7.17;;;22.30;94.40;;;22.72;59.80;94074.03;5074618;28;20466;-60
2023/08/30 02:39:33;;;;;;;10.23;6.40;;;22.20;94.70;;;22.66;59.49;94066.94;5080825;28;20474;-59
2023/08/30 02:42:02;;;;;;;11.17;6.87;;;22.10;94.80;;;22.60;60.06;94070.56;5078450;28;20458;-62
2023/08/30 02:44:29;;;;;;;13.23;6.40;;;22.10;94.90;;;22.54;60.26;94069.66;5078796;28;20559;-57
2023/08/30 02:46:56;;;;;;;9.23;6.10;;;22.00;94.80;;;22.49;60.14;94066.81;5078042;28;20454;-56
2023/08/30 02:49:23;;;;;;;12.03;7.33;;;22.00;94.90;;;22.44;59.90;94061.38;5076331;28;20466;-60
2023/08/30 02:51:51;;;;;;;9.80;5.83;;;21.90;95.10;;;22.40;60.41;94059.38;5080333;28;20950;-58
2023/08/30 02:54:19;;;;;;;11.60;5.60;;;21.90;95.20;;;22.36;60.07;94062.53;5069379;28;20478;-58
2023/08/30 02:56:46;;;;;;;15.53;6.10;;;21.80;95.00;;;22.32;60.17;94057.88;5073789;28;20461;-60
2023/08/30 02:59:14;;;;;;;9.77;5.57;;;21.80;94.70;;;22.31;59.39;94050.91;5075502;28;20547;-61
2023/08/30 03:01:41;;;;;;;6.37;4.80;;;21.80;94.70;;;22.30;59.30;94051.91;5075850;28;20442;-61
2023/08/30 03:04:08;;;;;;;9.70;5.40;;;21.80;94.70;;;22.32;59.02;94055.19;5073430;28;21036;-59
2023/08/30 03:06:36;;;;;;;11.67;5.50;;;21.70;94.50;;;22.31;59.53;94054.38;5074722;28;20462;-60
2023/08/30 03:09:03;;;;;;;12.10;6.30;;;21.70;94.40;;;22.34;58.81;94061.16;5068388;28;20474;-58
2023/08/30 03:11:32;;;;;;;9.13;5.93;;;21.80;94.20;;;22.36;59.11;94069.75;5069554;28;20932;-61
2023/08/30 03:14:00;;;;;;;11.70;5.23;;;21.80;94.20;;;22.38;58.61;94068.50;5068632;28;21011;-57
2023/08/30 03:16:27;;;;;;;8.80;6.13;;;21.80;93.90;;;22.40;58.77;94070.91;5075728;28;20458;-60
2023/08/30 03:18:54;;;;;;;7.47;4.80;;;21.80;93.60;;;22.42;58.28;94066.16;5074989;28;20475;-60
2023/08/30 03:21:22;;;;;;;8.43;5.57;;;21.80;93.30;;;22.41;57.97;94059.16;5074002;28;20474;-57
2023/08/30 03:23:49;;;;;;;8.27;5.07;;;21.90;93.00;;;22.42;57.69;94059.94;5072895;28;20624;-61
2023/08/30 03:26:17;;;;;;;11.70;5.10;;;21.80;92.80;;;22.41;57.49;94045.75;5076115;28;20987;-59
2023/08/30 03:28:46;;;;;;;7.67;5.20;;;21.80;92.60;;;22.42;57.31;94041.19;5068699;28;20544;-60
2023/08/30 03:31:14;;;;;;;10.13;5.10;;;21.80;92.50;;;22.42;57.05;94041.19;5070569;28;20448;-60
2023/08/30 03:33:42;;;;;;;10.03;5.50;;;21.90;92.40;;;22.42;57.43;94041.19;5074014;28;20483;-61
2023/08/30 03:36:10;;;;;;;8.77;5.40;;;21.90;92.30;;;22.42;56.92;94044.72;5072148;28;20558;-57
2023/08/30 03:38:37;;;;;;;14.77;5.40;;;21.90;92.20;;;22.40;56.72;94038.75;5075387;28;20470;-61
2023/08/30 03:41:05;;;;;;;10.43;5.93;;;21.80;91.90;;;22.37;57.19;94042.72;5070345;28;20626;-56
2023/08/30 03:43:32;;;;;;;6.30;4.80;;;21.80;91.90;;;22.33;56.37;94046.91;5066703;28;20942;-62
2023/08/30 03:46:01;;;;;;;9.90;5.33;;;21.80;91.90;;;22.32;56.88;94036.44;5070435;28;20459;-57
2023/08/30 03:48:28;;;;;;;11.50;5.10;;;21.80;91.90;;;22.29;56.53;94034.19;5069814;28;20474;-60
2023/08/30 03:50:56;;;;;;;12.30;5.90;;;21.70;92.20;;;22.27;56.99;94042.47;5078221;28;20454;-58
2023/08/30 03:53:23;;;;;;;10.93;5.50;;;21.80;92.00;;;22.25;57.42;94049.94;5075168;28;20478;-60
2023/08/30 03:55:50;;;;;;;7.63;5.30;;;21.70;92.20;;;22.23;57.18;94061.91;5067951;28;20544;-60
2023/08/30 03:58:18;;;;;;;7.80;5.43;;;21.70;92.40;;;22.20;56.92;94074.72;5066996;28;20478;-60
2023/08/30 04:00:46;;;;;;;22.23;5.93;;;21.70;92.40;;;22.18;57.27;94081.34;5071816;28;20462;-61
2023/08/30 04:03:15;;;;;;;15.10;6.30;;;21.70;92.50;;;22.15;57.34;94082.66;5071098;28;20563;-57
2023/08/30 04:05:43;;;;;;;13.50;5.80;;;21.60;92.30;;;22.16;57.82;94067.38;5068854;28;20524;-58
2023/08/30 04:08:10;;;;;;;10.90;5.40;;;21.60;92.40;;;22.17;57.29;94061.78;5070421;28;20489;-58
2023/08/30 04:10:37;;;;;;;15.83;6.20;;;21.60;92.50;;;22.22;57.25;94054.94;5070626;28;20450;-58
2023/08/30 04:13:05;;;;;;;15.30;6.13;;;21.70;92.60;;;22.28;57.86;94056.69;5069916;28;20454;-62
2023/08/30 04:15:34;;;;;;;13.57;5.93;;;21.70;92.80;;;22.34;57.68;94067.31;5068504;28;20516;-59
2023/08/30 04:18:02;;;;;;;25.30;6.50;;;21.80;93.00;;;22.42;57.30;94081.38;5070389;28;20461;-60
2023/08/30 04:20:30;;;;;;;12.90;6.97;;;21.80;92.90;;;22.50;57.72;94081.06;5068108;28;20467;-57
2023/08/30 04:22:59;;;;;;;9.67;6.07;;;21.90;92.70;;;22.56;56.80;94094.34;5071728;28;20442;-57
2023/08/30 04:25:28;;;;;;;12.63;5.93;;;22.00;92.30;;;22.62;56.60;94097.13;5073123;28;20458;-57
2023/08/30 04:27:56;;;;;;;12.10;5.20;;;22.00;92.00;;;22.65;56.20;94097.50;5072503;28;20516;-59
2023/08/30 04:30:23;;;;;;;18.60;6.10;;;22.10;91.70;;;22.69;56.11;94108.56;5070461;28;20454;-60
2023/08/30 04:32:51;;;;;;;9.23;5.77;;;22.10;91.50;;;22.73;56.37;94137.34;5068459;28;20896;-61
2023/08/30 04:35:18;;;;;;;15.37;6.00;;;22.20;91.50;;;22.78;56.27;94166.13;5069110;28;20469;-61
2023/08/30 04:37:48;;;;;;;16.13;6.23;;;22.20;91.40;;;22.83;55.89;94160.88;5067609;28;20461;-61
2023/08/30 04:40:15;;;;;;;11.93;5.93;;;22.30;91.20;;;22.87;56.05;94154.00;5068204;28;20454;-62
2023/08/30 04:42:42;;;;;;;13.40;6.30;;;22.30;91.10;;;22.88;55.88;94125.31;5065517;28;20524;-57
2023/08/30 04:45:10;;;;;;;13.93;4.93;;;22.30;91.60;;;22.88;56.51;94139.56;5074239;28;20512;-60
2023/08/30 04:47:38;;;;;;;10.03;4.00;;;22.30;91.90;;;22.89;56.24;94162.63;5070315;28;21038;-58
2023/08/30 04:50:06;;;;;;;9.77;6.00;;;22.30;91.80;;;22.87;56.97;94167.41;5069357;28;20474;-62
2023/08/30 04:52:33;;;;;;;8.93;4.70;;;22.30;91.80;;;22.88;56.79;94163.69;5067539;28;20525;-60
2023/08/30 04:55:02;;;;;;;12.80;4.80;;;22.30;91.90;;;22.88;56.35;94161.00;5071070;28;20469;-57
2023/08/30 04:57:29;;;;;;;17.33;5.00;;;22.30;91.80;;;22.87;57.18;94153.19;5070071;28;20451;-56
2023/08/30 04:59:58;;;;;;;17.90;5.77;;;22.30;92.00;;;22.85;57.59;94121.25;5071890;28;20527;-58
2023/08/30 05:02:25;;;;;;;6.43;4.37;;;22.30;92.50;;;22.81;57.21;94114.72;5070333;28;20447;-60
2023/08/30 05:04:52;;;;;;;16.87;5.07;;;22.30;92.30;;;22.77;57.25;94126.94;5071414;28;21085;-59
2023/08/30 05:07:19;;;;;;;15.70;4.67;;;22.20;92.50;;;22.73;56.92;94141.91;5068119;28;20920;-59
2023/08/30 05:09:47;;;;;;;11.03;4.50;;;22.20;92.40;;;22.68;56.90;94128.34;5067483;28;20501;-58
2023/08/30 05:12:15;;;;;;;7.93;4.57;;;22.10;92.30;;;22.60;57.77;94134.06;5069858;28;20516;-61
2023/08/30 05:14:42;;;;;;;5.17;3.83;;;22.10;92.40;;;22.55;57.82;94132.91;5073166;28;20475;-62
2023/08/30 05:17:09;;;;;;;9.83;4.80;;;22.00;92.70;;;22.52;57.87;94136.03;5072447;28;20458;-61
2023/08/30 05:19:37;;;;;;;9.10;4.10;;;22.00;92.70;;;22.51;57.33;94142.47;5071676;28;20527;-57
2023/08/30 05:22:04;;;;;;;10.60;4.20;;;22.00;93.00;;;22.52;57.85;94141.41;5071724;28;20522;-58
2023/08/30 05:24:32;;;;;;;23.40;5.10;;;22.00;92.70;;;22.57;57.48;94138.03;5069736;28;20530;-62
2023/08/30 05:26:59;;;;;;;6.60;3.70;;;22.00;92.80;;;22.61;57.17;94135.72;5073823;28;20455;-60
2023/08/30 05:29:28;;;;;;;6.30;3.87;;;22.00;92.60;;;22.62;57.41;94137.31;5070412;28;21468;-57
2023/08/30 05:31:55;;;;;;;9.40;3.70;;;22.10;92.40;;;22.65;56.71;94134.19;5069169;28;20459;-57
2023/08/30 05:34:23;;;;;;;9.43;5.30;;;22.10;92.40;;;22.68;56.58;94147.13;5068231;28;20478;-61
2023/08/30 05:36:50;;;;;;;8.23;3.87;;;22.10;92.10;;;22.72;56.38;94140.25;5067297;28;20461;-60
2023/08/30 05:39:18;;;;;;;8.87;4.30;;;22.10;92.10;;;22.80;56.33;94145.25;5073536;28;21093;-58
2023/08/30 05:41:45;;;;;;;8.03;4.37;;;22.20;92.10;;;22.89;56.56;94135.81;5069424;28;20462;-58
2023/08/30 05:44:12;;;;;;;8.93;4.40;;;22.30;92.20;;;22.98;56.67;94135.47;5066361;28;20539;-60
2023/08/30 05:46:41;;;;;;;12.37;5.30;;;22.40;91.90;;;23.04;56.62;94137.22;5072278;28;20450;-58
2023/08/30 05:49:08;;;;;;;9.93;4.60;;;22.40;91.90;;;23.14;56.51;94140.13;5069158;28;20482;-58
2023/08/30 05:51:35;;;;;;;7.30;4.70;;;22.60;92.10;;;23.30;56.65;94129.72;5070883;28;20832;-61
2023/08/30 05:54:03;;;;;;;7.43;4.50;;;22.60;92.10;;;23.46;56.59;94134.34;5068806;28;20516;-61
2023/08/30 05:56:30;;;;;;;7.70;4.40;;;22.80;92.10;;;23.62;56.14;94138.13;5072749;28;20544;-58
2023/08/30 05:58:57;;;;;;;12.10;4.80;;;23.00;91.60;;;23.78;55.53;94126.63;5070639;28;20889;-59
2023/08/30 06:01:25;;;;;;;7.07;3.60;;;23.10;91.50;;;23.96;54.59;94128.31;5071744;28;20470;-61
2023/08/30 06:03:54;;;;;;;4.23;3.80;;;23.30;90.70;;;24.08;54.26;94130.16;5069333;28;20500;-60
2023/08/30 06:06:21;;;;;;;8.23;3.70;;;23.40;89.70;;;24.19;53.58;94134.63;5071349;28;20899;-60
2023/08/30 06:08:49;;;;;;;5.57;3.87;;;23.50;89.10;;;24.25;53.67;94140.91;5070491;28;20578;-60
2023/08/30 06:11:16;;;;;;;5.60;3.13;;;23.60;88.10;;;24.34;52.79;94140.25;5070676;28;20453;-58
2023/08/30 06:13:43;;;;;;;9.10;3.30;;;23.70;87.50;;;24.50;52.55;94130.56;5071813;28;21159;-58
2023/08/30 06:16:10;;;;;;;8.60;4.40;;;23.80;87.10;;;24.68;52.37;94124.16;5069052;28;20915;-61
2023/08/30 06:18:38;;;;;;;9.20;4.60;;;24.00;86.70;;;24.81;52.14;94130.25;5066482;28;20481;-57
2023/08/30 06:21:06;;;;;;;16.13;5.07;;;24.10;86.30;;;24.87;52.37;94143.53;5068214;28;20439;-61
2023/08/30 06:23:35;;;;;;;13.37;5.17;;;24.20;86.40;;;24.98;53.00;94139.09;5067398;28;20478;-60
2023/08/30 06:26:02;;;;;;;15.70;5.87;;;24.30;87.50;;;25.18;53.33;94145.84;5069113;28;20541;-59
2023/08/30 06:28:30;;;;;;;13.47;3.60;;;24.40;87.70;;;25.43;52.61;94149.97;5070698;28;20500;-58
2023/08/30 06:30:58;;;;;;;6.77;3.90;;;24.70;87.20;;;25.69;52.51;94149.19;5075436;28;20962;-61
2023/08/30 06:33:25;;;;;;;5.80;4.40;;;24.90;86.50;;;25.96;51.82;94143.00;5071224;28;20509;-58
2023/08/30 06:35:53;;;;;;;8.27;4.10;;;25.20;85.20;;;26.20;51.08;94143.56;5069025;28;20461;-59
2023/08/30 06:38:22;;;;;;;11.47;4.23;;;25.40;83.80;;;26.42;50.67;94148.84;5073038;28;20502;-62
2023/08/30 06:40:49;;;;;;;15.10;4.23;;;25.70;82.50;;;26.62;50.14;94153.59;5072086;28;20911;-61
2023/08/30 06:43:18;;;;;;;6.80;3.37;;;25.90;81.50;;;26.82;49.63;94152.97;5071462;28;20545;-59
2023/08/30 06:45:46;;;;;;;6.40;3.60;;;26.10;80.50;;;26.98;49.18;94153.09;5072620;28;20504;-62
2023/08/30 06:48:13;;;;;;;11.47;4.47;;;26.30;78.80;;;27.06;48.89;94151.78;5079289;28;20871;-60
2023/08/30 06:50:40;;;;;;;6.73;4.13;;;26.40;77.80;;;27.05;48.18;94159.06;5069782;28;20772;-59
2023/08/30 06:53:09;;;;;;;11.27;3.70;;;26.40;76.50;;;27.04;48.38;94148.53;5074337;28;21391;-59
2023/08/30 06:55:37;;;;;;;8.50;3.70;;;26.40;76.20;;;27.01;48.55;94157.97;5071767;28;20983;-62
2023/08/30 06:58:05;;;;;;;4.63;4.17;;;26.40;75.80;;;27.04;48.35;94152.03;5073733;28;20891;-59
2023/08/30 07:00:33;;;;;;;3.90;3.60;;;26.50;76.00;;;27.18;48.34;94149.69;5070523;28;20979;-61
2023/08/30 07:03:00;;;;;;;9.93;4.40;;;26.50;75.80;;;27.34;48.43;94151.44;5071966;28;20438;-59
2023/08/30 07:05:28;;;;;;;3.70;3.43;;;26.60;75.70;;;27.52;48.01;94147.47;5074848;28;20542;-58
2023/08/30 07:07:55;;;;;;;13.63;5.33;;;26.80;75.10;;;27.72;47.81;94135.13;5075160;28;20457;-60
2023/08/30 07:10:23;;;;;;;7.97;4.10;;;27.00;74.70;;;27.98;46.98;94146.84;5073128;28;20449;-59
2023/08/30 07:12:51;;;;;;;6.00;4.03;;;27.20;74.40;;;28.29;47.05;94151.47;5073023;28;20451;-61
2023/08/30 07:15:19;;;;;;;4.80;4.10;;;27.50;73.40;;;28.60;46.66;94153.16;5075791;28;20460;-60
2023/08/30 07:17:46;;;;;;;6.30;3.40;;;27.80;72.40;;;28.87;45.22;94149.34;5074197;28;20476;-61
2023/08/30 07:20:13;;;;;;;11.23;4.50;;;28.10;71.10;;;29.11;45.60;94159.59;5070385;28;20454;-58
2023/08/30 07:22:41;;;;;;;5.67;4.10;;;28.30;70.50;;;29.35;44.78;94145.50;5073044;28;20881;-59
2023/08/30 07:25:10;;;;;;;8.87;5.20;;;28.60;69.60;;;29.62;44.60;94147.84;5067336;28;20489;-62
2023/08/30 07:27:37;;;;;;;12.40;4.70;;;28.80;68.20;;;29.93;44.05;94154.00;5073496;28;20763;-58
2023/08/30 07:30:08;;;;;;;7.30;4.50;;;29.10;68.00;;;30.21;43.32;94151.66;5071708;28;20285;-60
2023/08/30 07:32:35;;;;;;;5.37;4.10;;;29.40;66.80;;;30.47;42.72;94151.50;5080419;28;20822;-58
2023/08/30 07:35:03;;;;;;;7.57;4.63;;;29.70;65.70;;;30.70;42.53;94156.19;5074570;28;20212;-62
2023/08/30 07:37:30;;;;;;;8.33;4.53;;;29.90;64.90;;;30.98;41.97;94151.09;5072826;28;20306;-63
2023/08/30 07:39:57;;;;;;;8.30;4.37;;;30.20;64.50;;;31.24;40.87;94153.56;5069516;28;20606;-59
2023/08/30 07:42:25;;;;;;;10.40;3.90;;;30.50;62.90;;;31.38;40.82;94154.50;5067225;28;20196;-61
2023/08/30 07:44:52;;;;;;;17.13;3.83;;;30.60;62.20;;;31.34;40.17;94153.47;5077923;28;20231;-59
2023/08/30 07:47:21;;;;;;;5.77;3.70;;;30.60;61.40;;;31.42;40.41;94149.31;5080038;28;20203;-61
2023/08/30 07:49:48;;;;;;;8.43;4.43;;;30.70;61.20;;;31.59;40.31;94148.91;5074817;28;20219;-59
2023/08/30 07:52:15;;;;;;;6.23;4.17;;;30.80;60.60;;;31.86;39.71;94148.28;5075196;28;20208;-57
2023/08/30 07:54:43;;;;;;;6.07;4.80;;;31.10;60.80;;;32.21;39.69;94142.66;5069633;28;20216;-63
2023/08/30 07:57:10;;;;;;;11.90;6.60;;;31.40;60.20;;;32.50;39.41;94143.31;5070748;28;20196;-60
2023/08/30 07:59:37;;;;;;;6.60;3.95;;;31.70;59.50;;;32.83;38.99;94154.25;5075495;28;20224;-62
2023/08/30 08:02:06;;;;;;;6.15;4.45;;;32.00;59.20;;;33.15;38.52;94155.34;5068828;28;20207;-60
2023/08/30 08:04:34;;;;;;;5.55;3.40;;;32.50;57.90;;;33.47;37.92;94161.88;5074406;28;20929;-58
2023/08/30 08:07:02;;;;;;;4.75;3.15;;;32.80;57.70;;;33.66;37.76;94155.53;5077275;28;20277;-60
2023/08/30 08:09:29;;;;;;;5.13;3.40;;;33.10;56.50;;;33.76;36.82;94163.53;5072639;28;20220;-59
2023/08/30 08:11:57;;;;;;;4.45;3.35;;;33.30;56.00;;;33.95;36.77;94150.56;5069359;28;20200;-62
2023/08/30 08:14:24;;;;;;;3.33;3.00;;;33.40;55.70;;;34.21;37.25;94150.03;5076897;28;20656;-58
2023/08/30 08:16:51;;;;;;;10.27;3.08;;;33.70;55.20;;;34.46;36.67;94150.59;5075893;28;20658;-61
2023/08/30 08:19:19;;;;;;;4.78;3.05;;;33.90;54.30;;;34.71;35.38;94159.31;5070009;28;20258;-59
2023/08/30 08:21:49;;;;;;;8.15;2.83;;;34.20;53.70;;;34.96;34.94;94161.44;5071164;28;20289;-58
2023/08/30 08:24:16;;;;;;;2.90;2.55;;;34.60;53.20;;;35.24;35.11;94164.00;5068457;28;20301;-59
2023/08/30 08:26:43;;;;;;;6.78;2.95;;;34.90;52.80;;;35.53;35.05;94162.75;5072830;28;20207;-62
2023/08/30 08:29:10;;;;;;;3.22;2.92;;;35.20;52.30;;;35.78;34.90;94163.19;5073158;28;20255;-63
2023/08/30 08:31:38;;;;;;;10.95;4.15;;;35.50;51.90;;;36.01;34.57;94166.63;5069559;28;20269;-60
2023/08/30 08:34:10;;;;;;;4.03;3.40;;;35.80;51.60;;;36.23;33.90;94171.19;5074765;28;20254;-58
2023/08/30 08:36:38;;;;;;;14.30;3.42;;;36.00;50.80;;;36.41;33.41;94170.09;5069348;28;20291;-62
2023/08/30 08:39:06;;;;;;;5.20;3.40;;;36.10;50.20;;;36.53;32.60;94171.41;5068816;28;20220;-57
2023/08/30 08:41:41;;;;;;;3.33;2.70;;;36.20;49.00;;;36.60;31.80;94174.47;5070744;28;20667;-59
2023/08/30 08:44:08;;;;;;;4.90;2.67;;;36.30;48.60;;;36.67;32.11;94169.31;5064544;28;20712;-58
2023/08/30 08:46:36;;;;;;;4.80;3.10;;;36.20;48.40;;;36.67;32.13;94165.75;5073246;28;20281;-63
2023/08/30 08:49:09;;;;;;;6.32;3.13;;;36.20;48.30;;;36.66;32.43;94175.94;5068627;28;20306;-58
2023/08/30 08:51:36;;;;;;;10.82;3.63;;;36.10;48.90;;;36.68;31.77;94165.44;5070954;28;20745;-62
2023/08/30 08:54:06;;;;;;;3.60;2.90;;;36.10;48.30;;;36.68;31.81;94156.41;5070387;28;20245;-59
2023/08/30 08:56:34;;;;;;;7.45;2.95;;;36.10;48.30;;;36.67;32.23;94149.31;5070045;28;20265;-59
2023/08/30 08:59:01;;;;;;;8.20;4.15;;;36.00;48.10;;;36.70;31.57;94149.50;5068819;28;20223;-63
2023/08/30 09:01:29;;;;;;;4.20;3.10;;;36.00;48.00;;;36.66;31.98;94154.00;5071728;28;20295;-61
2023/08/30 09:03:56;;;;;;;6.95;3.00;;;36.00;47.60;;;36.60;31.32;94149.81;5070942;28;20230;-59
2023/08/30 09:06:23;;;;;;;8.57;3.15;;;35.90;47.70;;;36.57;31.22;94150.47;5071260;28;20231;-62
2023/08/30 09:08:50;;;;;;;2.95;2.50;;;35.80;47.40;;;36.58;31.17;94141.13;5070215;28;20281;-59
2023/08/30 09:11:19;;;;;;;7.65;3.33;;;35.90;47.60;;;36.58;31.15;94141.13;5066606;28;20200;-59
2023/08/30 09:13:46;;;;;;;4.13;3.40;;;35.80;47.50;;;36.58;31.45;94141.13;5064634;28;20767;-58
2023/08/30 09:16:14;;;;;;;6.40;3.80;;;35.80;47.20;;;36.59;31.24;94142.72;5075494;28;20195;-60
2023/08/30 09:18:42;;;;;;;11.43;4.22;;;35.80;47.40;;;36.61;31.72;94144.00;5070357;28;20777;-63
2023/08/30 09:21:09;;;;;;;7.47;3.53;;;35.80;47.60;;;36.59;31.57;94139.97;5067053;28;20932;-64
2023/08/30 09:23:36;;;;;;;5.82;3.42;;;35.80;47.20;;;36.50;31.49;94136.44;5071024;28;20281;-62
2023/08/30 09:26:04;;;;;;;7.35;3.83;;;35.70;47.10;;;36.40;31.13;94126.59;5072596;28;20231;-62
2023/08/30 09:28:32;;;;;;;7.70;3.67;;;35.60;46.80;;;36.38;31.15;94142.56;5070494;28;20219;-64
2023/08/30 09:31:00;;;;;;;5.97;4.35;;;35.60;47.20;;;36.37;31.43;94133.53;5068855;28;20598;-58
2023/08/30 09:33:34;;;;;;;8.98;4.70;;;35.50;48.30;;;36.35;31.49;94138.53;5069567;28;20315;-61
2023/08/30 09:36:01;;;;;;;5.85;3.88;;;35.50;47.40;;;36.37;31.29;94140.94;5073155;28;20214;-62
2023/08/30 09:38:29;;;;;;;5.03;4.05;;;35.50;47.40;;;36.34;31.03;94139.63;5065370;28;20224;-62
2023/08/30 09:41:05;;;;;;;6.10;3.95;;;35.50;47.20;;;36.29;30.59;94137.06;5069317;28;20656;-60
2023/08/30 09:43:34;;;;;;;9.68;3.53;;;35.50;46.90;;;36.24;31.92;94137.22;5068686;28;20307;-59
2023/08/30 09:46:05;;;;;;;4.40;4.00;;;35.50;47.60;;;36.19;31.23;94137.34;5069531;28;20250;-62
2023/08/30 09:48:32;;;;;;;6.78;4.07;;;35.40;47.70;;;36.15;31.78;94130.91;5068280;28;20684;-58
2023/08/30 09:51:00;;;;;;;4.80;3.03;;;35.40;48.00;;;36.14;31.96;94126.56;5067049;28;20258;-58
2023/08/30 09:53:28;;;;;;;19.05;6.72;;;35.40;47.80;;;36.13;32.38;94119.47;5074459;28;20310;-61
2023/08/30 09:55:55;;;;;;;4.78;3.85;;;35.30;48.10;;;36.11;31.71;94124.44;5067482;28;20285;-58
2023/08/30 09:58:23;;;;;;;9.15;3.53;;;35.30;47.90;;;36.05;31.96;94119.16;5069810;28;20219;-58
2023/08/30 10:00:51;;;;;;;5.38;3.80;;;35.30;47.40;;;35.99;31.91;94109.47;5071681;28;20199;-58
2023/08/30 10:03:19;;;;;;;24.08;6.20;;;35.20;47.50;;;35.87;31.52;94115.56;5071214;28;20230;-60
2023/08/30 10:05:47;;;;;;;11.45;4.72;;;35.10;47.70;;;35.80;31.92;94108.94;5075756;28;20226;-62
2023/08/30 10:08:15;;;;;;;14.10;5.63;;;35.10;48.30;;;35.69;32.32;94106.47;5075593;28;20219;-58
2023/08/30 10:10:42;;;;;;;10.55;4.60;;;34.90;48.20;;;35.60;32.00;94105.63;5072934;28;20200;-60
2023/08/30 10:13:09;;;;;;;8.07;4.03;;;34.80;48.10;;;35.62;32.68;94105.31;5071769;28;20246;-59
2023/08/30 10:15:47;;;;;;;7.25;3.50;;;34.80;48.60;;;35.63;32.05;94096.78;5072103;28;20257;-62
2023/08/30 10:18:16;;;;;;;6.20;3.45;;;34.80;48.10;;;35.60;31.42;94100.16;5078787;28;20254;-62
2023/08/30 10:20:45;;;;;;;6.88;4.40;;;34.80;47.90;;;35.48;31.96;94099.97;5071632;28;20766;-62